地図

経路データ

SID SEASON NUMBER BASIN SUBBASIN NAME ISO_TIME NATURE LAT LON WMO_WIND WMO_PRES WMO_AGENCY TRACK_TYPE DIST2LAND LANDFALL IFLAG USA_AGENCY USA_ATCF_ID USA_LAT USA_LON USA_RECORD USA_STATUS USA_WIND USA_PRES USA_SSHS USA_R34_NE USA_R34_SE USA_R34_SW USA_R34_NW USA_R50_NE USA_R50_SE USA_R50_SW USA_R50_NW USA_R64_NE USA_R64_SE USA_R64_SW USA_R64_NW USA_POCI USA_ROCI USA_RMW USA_EYE TOKYO_LAT TOKYO_LON TOKYO_GRADE TOKYO_WIND TOKYO_PRES TOKYO_R50_DIR TOKYO_R50_LONG TOKYO_R50_SHORT TOKYO_R30_DIR TOKYO_R30_LONG TOKYO_R30_SHORT TOKYO_LAND CMA_LAT CMA_LON CMA_CAT CMA_WIND CMA_PRES HKO_LAT HKO_LON HKO_CAT HKO_WIND HKO_PRES NEWDELHI_LAT NEWDELHI_LON NEWDELHI_GRADE NEWDELHI_WIND NEWDELHI_PRES NEWDELHI_CI NEWDELHI_DP NEWDELHI_POCI REUNION_LAT REUNION_LON REUNION_TYPE REUNION_WIND REUNION_PRES REUNION_TNUM REUNION_CI REUNION_RMW REUNION_R34_NE REUNION_R34_SE REUNION_R34_SW REUNION_R34_NW REUNION_R50_NE REUNION_R50_SE REUNION_R50_SW REUNION_R50_NW REUNION_R64_NE REUNION_R64_SE REUNION_R64_SW REUNION_R64_NW BOM_LAT BOM_LON BOM_TYPE BOM_WIND BOM_PRES BOM_TNUM BOM_CI BOM_RMW BOM_R34_NE BOM_R34_SE BOM_R34_SW BOM_R34_NW BOM_R50_NE BOM_R50_SE BOM_R50_SW BOM_R50_NW BOM_R64_NE BOM_R64_SE BOM_R64_SW BOM_R64_NW BOM_ROCI BOM_POCI BOM_EYE BOM_POS_METHOD BOM_PRES_METHOD NADI_LAT NADI_LON NADI_CAT NADI_WIND NADI_PRES WELLINGTON_LAT WELLINGTON_LON WELLINGTON_WIND WELLINGTON_PRES DS824_LAT DS824_LON DS824_STAGE DS824_WIND DS824_PRES TD9636_LAT TD9636_LON TD9636_STAGE TD9636_WIND TD9636_PRES TD9635_LAT TD9635_LON TD9635_WIND TD9635_PRES TD9635_ROCI NEUMANN_LAT NEUMANN_LON NEUMANN_CLASS NEUMANN_WIND NEUMANN_PRES MLC_LAT MLC_LON MLC_CLASS MLC_WIND MLC_PRES USA_GUST BOM_GUST BOM_GUST_PER REUNION_GUST REUNION_GUST_PER USA_SEAHGT USA_SEARAD_NE USA_SEARAD_SE USA_SEARAD_SW USA_SEARAD_NW STORM_SPEED STORM_DIR
1880271N13322 1880 23 NA NA NOT_NAMED 1880-09-27 00:00:00 TS 13.4000 -38.5000 spur-merge 1736 1686 _____________O -1 13.4000 -38.5000 TS 35 18 294
1880271N13322 1880 23 NA NA NOT_NAMED 1880-09-27 03:00:00 TS 13.7635 -39.3266 spur-merge 1693 1647 _____________P -1 13.7635 -39.3266 TS 37 17 294
1880271N13322 1880 23 NA NA NOT_NAMED 1880-09-27 06:00:00 TS 14.1000 -40.1000 spur-merge 1647 1614 _____________O -1 14.1000 -40.1000 TS 40 16 294
1880271N13322 1880 23 NA NA NOT_NAMED 1880-09-27 09:00:00 TS 14.3987 -40.8184 spur-merge 1614 1576 _____________P -1 14.3987 -40.8184 TS 45 17 291
1880271N13322 1880 23 NA NA NOT_NAMED 1880-09-27 12:00:00 TS 14.7000 -41.7000 spur-merge 1569 1504 _____________O -1 14.7000 -41.7000 TS 50 23 287
1880271N13322 1880 23 NA NA NOT_NAMED 1880-09-27 15:00:00 TS 15.0517 -43.0494 spur-merge 1513 1456 _____________P -1 15.0517 -43.0494 TS 55 27 285
1880271N13322 1880 23 NA NA NOT_NAMED 1880-09-27 18:00:00 TS 15.4000 -44.4000 spur-merge 1452 1418 _____________O -1 15.4000 -44.4000 TS 60 22 287
1880271N13322 1880 23 NA NA NOT_NAMED 1880-09-27 21:00:00 TS 15.6985 -45.2757 spur-merge 1420 1404 _____________P -1 15.6985 -45.2757 TS 60 17 291
1880271N13322 1880 23 NA NA NOT_NAMED 1880-09-28 00:00:00 TS 16.0000 -46.0000 spur-merge 1408 1395 _____________O -1 16.0000 -46.0000 TS 60 17 293
1880271N13322 1880 23 NA NA NOT_NAMED 1880-09-28 03:00:00 TS 16.3498 -46.8500 spur-merge 1390 1386 _____________P -1 16.3498 -46.8500 TS 65 18 293
1880271N13322 1880 23 NA NA NOT_NAMED 1880-09-28 06:00:00 TS 16.7000 -47.7000 spur-merge 1392 1386 _____________O -1 16.7000 -47.7000 HU 70 17 292
1880271N13322 1880 23 NA NA NOT_NAMED 1880-09-28 09:00:00 TS 17.0071 -48.5079 spur-merge 1389 1380 _____________P -1 17.0071 -48.5079 HU 70 16 291
1880271N13322 1880 23 NA NA NOT_NAMED 1880-09-28 12:00:00 TS 17.3000 -49.3000 spur-merge 1383 1376 _____________O -1 17.3000 -49.3000 HU 70 16 291
1880271N13322 1880 23 NA NA NOT_NAMED 1880-09-28 15:00:00 TS 17.5997 -50.1003 spur-merge 1383 1353 _____________P -1 17.5997 -50.1003 HU 70 16 291
1880271N13322 1880 23 NA NA NOT_NAMED 1880-09-28 18:00:00 TS 17.9000 -50.9000 spur-merge 1353 1306 _____________O -1 17.9000 -50.9000 HU 70 17 291
1880271N13322 1880 23 NA NA NOT_NAMED 1880-09-28 21:00:00 TS 18.1774 -51.7229 spur-merge 1306 1264 _____________P -1 18.1774 -51.7229 HU 72 16 292
1880271N13322 1880 23 NA NA NOT_NAMED 1880-09-29 00:00:00 TS 18.5000 -52.5000 spur-merge 1264 1249 _____________O -1 18.5000 -52.5000 HU 75 16 298
1880271N13322 1880 23 NA NA NOT_NAMED 1880-09-29 03:00:00 TS 18.9271 -53.1802 spur-merge 1242 1238 _____________P -1 18.9271 -53.1802 HU 75 15 306
1880271N13322 1880 23 NA NA NOT_NAMED 1880-09-29 06:00:00 TS 19.4000 -53.8000 spur-merge 1243 1186 _____________O -1 19.4000 -53.8000 HU 75 15 309
1880271N13322 1880 23 NA NA NOT_NAMED 1880-09-29 09:00:00 TS 19.8496 -54.4005 spur-merge 1186 1131 _____________P -1 19.8496 -54.4005 HU 77 14 309
1880271N13322 1880 23 NA NA NOT_NAMED 1880-09-29 12:00:00 TS 20.3000 -55.0000 spur-merge 1131 1078 _____________O -1 20.3000 -55.0000 HU 80 15 308
1880271N13322 1880 23 NA NA NOT_NAMED 1880-09-29 15:00:00 TS 20.7574 -55.6502 spur-merge 1070 1021 _____________P -1 20.7574 -55.6502 HU 82 15 307
1880271N13322 1880 23 NA NA NOT_NAMED 1880-09-29 18:00:00 TS 21.2000 -56.3000 spur-merge 1021 976 _____________O -1 21.2000 -56.3000 HU 85 15 306
1880271N13322 1880 23 NA NA NOT_NAMED 1880-09-29 21:00:00 TS 21.6300 -56.9449 spur-merge 976 935 _____________P -1 21.6300 -56.9449 HU 87 14 306
1880271N13322 1880 23 NA NA NOT_NAMED 1880-09-30 00:00:00 TS 22.0000 -57.5000 spur-merge 935 913 _____________O -1 22.0000 -57.5000 HU 90 11 307
1880271N13322 1880 23 NA NA NOT_NAMED 1880-09-30 03:00:00 TS 22.2796 -57.8880 spur-merge 913 896 _____________P -1 22.2796 -57.8880 HU 92 8 308
1880271N13322 1880 23 NA NA NOT_NAMED 1880-09-30 06:00:00 TS 22.5000 -58.2000 spur-merge 896 881 _____________O -1 22.5000 -58.2000 HU 95 7 305
1880271N13322 1880 23 NA NA NOT_NAMED 1880-09-30 09:00:00 TS 22.7074 -58.5502 spur-merge 872 859 _____________P -1 22.7074 -58.5502 HU 97 8 302
1880271N13322 1880 23 NA NA NOT_NAMED 1880-09-30 12:00:00 NR 22.9000 -58.9000 spur-merge 859 840 _____________O -1 22.9000 -58.9000 MH 100 8 301
1880271N13322 1880 23 NA NA NOT_NAMED 1880-09-30 15:00:00 NR 23.1000 -59.2576 spur-merge 839 829 _____________P -1 23.1000 -59.2576 MH 102 8 302
1880271N13322 1880 23 NA NA NOT_NAMED 1880-09-30 18:00:00 NR 23.3000 -59.6000 spur-merge 829 821 _____________O -1 23.3000 -59.6000 MH 105 7 304
1880271N13322 1880 23 NA NA NOT_NAMED 1880-09-30 21:00:00 NR 23.4999 -59.9002 spur-merge 821 814 _____________P -1 23.4999 -59.9002 MH 107 7 306
1880271N13322 1880 23 NA NA NOT_NAMED 1880-10-01 00:00:00 NR 23.7000 -60.2000 spur-merge 815 808 _____________O -1 23.7000 -60.2000 MH 110 7 304
1880271N13322 1880 23 NA NA NOT_NAMED 1880-10-01 03:00:00 NR 23.9000 -60.5426 spur-merge 810 799 _____________P -1 23.9000 -60.5426 MH 112 8 302
1880271N13322 1880 23 NA NA NOT_NAMED 1880-10-01 06:00:00 NR 24.1000 -60.9000 spur-merge 801 792 _____________O -1 24.1000 -60.9000 MH 115 8 302
1880271N13322 1880 23 NA NA NOT_NAMED 1880-10-01 09:00:00 NR 24.2999 -61.2501 spur-merge 795 793 _____________P -1 24.2999 -61.2501 MH 117 8 302
1880271N13322 1880 23 NA NA NOT_NAMED 1880-10-01 12:00:00 NR 24.5000 -61.6000 spur-merge 797 791 _____________O -1 24.5000 -61.6000 MH 120 8 302
1880271N13322 1880 23 NA NA NOT_NAMED 1880-10-01 15:00:00 NR 24.7000 -61.9576 spur-merge 796 796 _____________P -1 24.7000 -61.9576 MH 120 8 302
1880271N13322 1880 23 NA NA NOT_NAMED 1880-10-01 18:00:00 NR 24.9000 -62.3000 spur-merge 802 798 _____________O -1 24.9000 -62.3000 MH 120 7 300
1880271N13322 1880 23 NA NA NOT_NAMED 1880-10-01 21:00:00 NR 25.0474 -62.6154 spur-merge 800 800 _____________P -1 25.1001 -62.6098 MH 120 7 306
1880271N13322 1880 23 NA NA NOT_NAMED 1880-10-02 00:00:00 NR 25.3000 -62.9000 spur-merge 820 _____________O -1 25.3000 -62.9000 MH 120 7 314

IBTrACS Databaseについて

本データベースは、米国NOAAが公開する1842年以降の世界の熱帯低気圧のベストトラックデータアーカイブInternational Best Track Archive for Climate Stewardship (IBTrACS)を、ウェブで閲覧しやすい形式に変換したものです。

最終更新日:2021-10-21